Wednesday, September 19, 2018, 7:08 PM GMT
Back to Local

CYVO, Val D'Or, Que.

Location: , , Canada Lat: 48.067
Local Time: 7:08 PM GMT (19:08 GMT) Lon: -77.783
Time Zone: GMT Elev: 1105 ft

Show me the last for .
Show Decoded

2018-09-19 18:00 METAR CYVO 191800Z VRB04KT 15SM FEW021 FEW260 11/04 A3015 RMK SC1CI1 SLP225 =
2018-09-19 17:00 METAR CYVO 191700Z VRB02KT 15SM BKN017 09/04 A3015 RMK SC5 PRESRR SLP225 =
2018-09-19 16:00 METAR CYVO 191600Z 04003KT 010V180 15SM OVC012 07/05 A3013 RMK ST8 SLP218 =
2018-09-19 15:32 METAR CYVO 191532Z 07006KT 360V090 15SM OVC010 07/05 A3014 RMK ST8 SLP222 =
2018-09-19 15:00 METAR CYVO 191500Z 03007KT 020V080 15SM OVC009 06/05 A3014 RMK ST8 SLP222 =
2018-09-19 14:00 METAR CYVO 191400Z 03008KT 15SM OVC009 06/05 A3014 RMK ST8 SLP222 =
2018-09-19 13:00 METAR CYVO 191300Z 01005KT 15SM OVC007 05/05 A3014 RMK ST8 VIS S LWR SLP222 =
2018-09-19 12:00 METAR CYVO 191200Z 02005KT 10SM OVC006 05/05 A3012 RMK ST8 SLP217 =
2018-09-19 11:00 METAR CYVO 191100Z 35010KT 5SM BR OVC006 04/04 A3010 RMK ST8 SLP210 =
2018-09-19 10:00 METAR CYVO 191000Z 35007KT 3SM -DZ OVC005 04/04 A3008 RMK ST8 SLP201 =
2018-09-19 09:28 METAR CYVO 190928Z AUTO 35006KT 2SM -RA BR OVC005 05/05 A3007 RMK SLP197 =
2018-09-19 09:22 METAR CYVO 190922Z AUTO 35007KT 1 1/2SM BR OVC005 05/05 A3006 RMK VIS VRB 1
                 1/4-2 1/2 SLP195 =
2018-09-19 09:18 METAR CYVO 190918Z AUTO 34006KT 2 1/4SM BR OVC005 05/05 A3006 RMK VIS VRB 1
                 1/4-3 SLP195 =
2018-09-19 09:00 METAR CYVO 190900Z AUTO 34007KT 5SM BR OVC005 05/05 A3006 RMK SLP193 =
2018-09-19 08:56 METAR CYVO 190856Z AUTO 34005KT 6SM BR OVC005 05/05 A3005 RMK SLP192 =
2018-09-19 08:53 METAR CYVO 190853Z AUTO 35005KT 3SM BR OVC005 05/05 A3005 RMK SLP191 =
2018-09-19 08:50 METAR CYVO 190850Z AUTO 34005KT 2SM BR OVC005 05/05 A3005 RMK SLP191 =
2018-09-19 08:46 METAR CYVO 190846Z AUTO 34004KT 1 1/4SM BR OVC005 05/05 A3005 RMK SLP191 =
2018-09-19 08:35 METAR CYVO 190835Z AUTO 33004KT 1 1/4SM -RA BR OVC005 04/04 A3005 RMK SLP189 =
2018-09-19 08:16 METAR CYVO 190816Z AUTO 33005KT 1 3/4SM BR OVC005 05/05 A3004 RMK VIS VRB 1
                 1/4-3 SLP188 =
2018-09-19 08:11 METAR CYVO 190811Z AUTO 34006KT 2 1/2SM BR OVC005 05/05 A3004 RMK SLP188 =
2018-09-19 08:04 METAR CYVO 190804Z AUTO 34007KT 5SM BR OVC005 05/05 A3004 RMK SLP188 =
2018-09-19 08:00 METAR CYVO 190800Z AUTO 33006KT 6SM BR OVC005 05/05 A3004 RMK SLP187 =
2018-09-19 07:57 METAR CYVO 190757Z AUTO 34006KT 6SM BR OVC005 05/05 A3004 RMK SLP187 =
2018-09-19 07:46 METAR CYVO 190746Z AUTO 33005KT 3SM BR OVC003 05/05 A3004 RMK SLP186 =
2018-09-19 07:42 METAR CYVO 190742Z AUTO 33006KT 2SM BR OVC003 05/05 A3004 RMK SLP186 =
2018-09-19 07:16 METAR CYVO 190716Z AUTO 33004KT 1 3/4SM BR OVC003 05/05 A3003 RMK SLP183 =
2018-09-19 07:02 METAR CYVO 190702Z AUTO 34006KT 2 1/2SM BR OVC003 05/05 A3003 RMK SLP184 =
2018-09-19 07:00 METAR CYVO 190700Z AUTO 35006KT 3SM BR OVC003 05/05 A3003 RMK SLP184 =
2018-09-19 06:58 METAR CYVO 190658Z AUTO 35005KT 5SM BR OVC003 05/05 A3003 RMK SLP184 =
2018-09-19 06:47 METAR CYVO 190647Z AUTO 36005KT 7SM OVC003 05/05 A3002 RMK SLP182 =
2018-09-19 06:43 METAR CYVO 190643Z AUTO 35006KT 3SM BR OVC003 05/05 A3002 RMK SLP182 =
2018-09-19 06:35 METAR CYVO 190635Z AUTO 35004KT 2 1/2SM BR OVC003 05/05 A3002 RMK VIS VRB 1
                 1/2-3 SLP182 =
2018-09-19 06:28 METAR CYVO 190628Z AUTO 34005KT 5SM BR OVC003 05/05 A3002 RMK SLP182 =
2018-09-19 06:26 METAR CYVO 190626Z AUTO 34005KT 6SM BR OVC003 05/05 A3002 RMK SLP182 =
2018-09-19 06:17 METAR CYVO 190617Z AUTO 35005KT 3SM BR OVC003 05/05 A3002 RMK SLP181 =
2018-09-19 06:07 METAR CYVO 190607Z AUTO 34005KT 2 1/4SM BR OVC003 05/05 A3002 RMK SLP180 =
2018-09-19 06:00 METAR CYVO 190600Z AUTO 35006KT 3SM BR OVC003 06/06 A3002 RMK SLP181 =
2018-09-19 05:50 METAR CYVO 190550Z AUTO 35007KT 5SM BR OVC003 06/06 A3002 RMK SLP180 =
2018-09-19 05:32 METAR CYVO 190532Z AUTO 36007KT 9SM OVC005 06/06 A3001 RMK SLP178 =
2018-09-19 05:18 METAR CYVO 190518Z AUTO 01006KT 9SM BKN007 OVC014 06/06 A3001 RMK SLP178 =
2018-09-19 05:02 METAR CYVO 190502Z AUTO 01006KT 9SM BKN005 BKN010 OVC014 06/06 A3001 RMK SLP178
                 =
2018-09-19 05:00 METAR CYVO 190500Z AUTO 01006KT 9SM SCT005 BKN010 OVC014 06/06 A3001 RMK SLP178
                 =
2018-09-19 04:38 METAR CYVO 190438Z AUTO 34005KT 7SM BKN005 OVC010 06/06 A3002 RMK SLP180 =
2018-09-19 04:32 METAR CYVO 190432Z AUTO 34006KT 3SM BR BKN005 OVC010 06/06 A3002 RMK SLP180 =
2018-09-19 04:20 METAR CYVO 190420Z AUTO 34006KT 5SM BR OVC007 06/06 A3002 RMK SLP182 =
2018-09-19 04:00 METAR CYVO 190400Z AUTO 35006KT 9SM OVC009 07/06 A3002 RMK SLP180 =
2018-09-19 03:00 METAR CYVO 190300Z AUTO 02005KT 9SM OVC010 07/07 A3000 RMK SLP175 =
2018-09-19 02:00 METAR CYVO 190200Z 35007KT 15SM -DZ BKN010 OVC015 07/07 A3000 RMK ST6SC2 CIG RAG
                 LAST STFD OBS/NEXT 191000UTC SLP174 =
2018-09-19 01:28 METAR CYVO 190128Z 35007KT 15SM -DZ BKN008 OVC016 07/07 A3000 RMK ST6SC2 SLP174
                 =
2018-09-19 01:00 METAR CYVO 190100Z 04006KT 15SM -DZ BKN015 OVC018 08/07 A2998 RMK ST6SC2 SLP166
                 =
2018-09-19 00:52 METAR CYVO 190052Z 02009KT 15SM -DZ BKN015 OVC018 08/07 A2999 RMK ST6SC2 SLP170
                 =
2018-09-19 00:00 METAR CYVO 190000Z 03006KT 15SM OVC015 09/06 A2998 RMK SC8 SLP168 =
2018-09-18 23:00 METAR CYVO 182300Z 04008KT 350V050 15SM OVC015 09/06 A2997 RMK SC8 SLP164 =
2018-09-18 22:00 METAR CYVO 182200Z 36009KT 15SM OVC016 10/07 A2996 RMK SC8 SLP159 =
2018-09-18 21:00 METAR CYVO 182100Z 32007KT 310V010 15SM BKN018 10/07 A2995 RMK SC7 SLP156 =
2018-09-18 20:00 METAR CYVO 182000Z 36008KT 15SM BKN018 10/07 A2994 RMK SC7 SLP153 =

Support USWX by starting your Amazon purchase here.